Time;durP1;ratioP1;P1;durP2;ratioP2;P2;SDS_P1;SDS_P2;PMS_P1;PMS_P2;Temp;Humidity;BMP_temperature;BMP_pressure;BME280_temperature;BME280_humidity;BME280_pressure;Samples;Min_cycle;Max_cycle;Signal;HPM_P1;HPM_P2
2024/03/21 00:02:04;;;;;;;10.38;5.20;;;;;;;;;;5087244;28;20509;-65
2024/03/21 00:04:31;;;;;;;10.38;5.65;;;;;;;;;;5087525;28;20390;-66
2024/03/21 00:06:57;;;;;;;8.68;5.88;;;;;;;;;;5083489;28;20024;-65
2024/03/21 00:09:23;;;;;;;8.82;5.70;;;;;;;;;;5064895;28;20037;-66
2024/03/21 00:11:49;;;;;;;9.23;5.78;;;;;;;;;;5080100;28;20025;-66
2024/03/21 00:14:15;;;;;;;10.88;6.28;;;;;;;;;;5078114;28;20500;-67
2024/03/21 00:16:42;;;;;;;9.77;5.65;;;;;;;;;;5077183;28;20481;-65
2024/03/21 00:19:09;;;;;;;9.48;7.30;;;;;;;;;;5066560;28;20031;-66
2024/03/21 00:21:35;;;;;;;7.32;5.22;;;;;;;;;;5080341;28;20550;-65
2024/03/21 00:24:02;;;;;;;17.02;5.15;;;;;;;;;;5083096;28;20036;-66
2024/03/21 00:26:28;;;;;;;9.23;5.10;;;;;;;;;;5079595;28;20417;-66
2024/03/21 00:28:54;;;;;;;9.18;6.25;;;;;;;;;;5072671;28;20061;-65
2024/03/21 00:31:20;;;;;;;12.23;5.53;;;;;;;;;;5075112;28;20587;-65
2024/03/21 00:33:49;;;;;;;9.10;5.85;;;;;;;;;;5070754;28;20481;-66
2024/03/21 00:36:16;;;;;;;7.65;4.97;;;;;;;;;;5079616;28;20110;-66
2024/03/21 00:38:42;;;;;;;8.80;6.05;;;;;;;;;;5085034;28;20040;-66
2024/03/21 00:41:09;;;;;;;10.18;6.32;;;;;;;;;;5076401;28;20042;-65
2024/03/21 00:43:35;;;;;;;9.38;6.40;;;;;;;;;;5081248;28;20077;-65
2024/03/21 00:46:01;;;;;;;13.68;6.10;;;;;;;;;;5085652;28;20388;-68
2024/03/21 00:48:27;;;;;;;8.70;5.80;;;;;;;;;;5079244;28;20428;-68
2024/03/21 00:50:53;;;;;;;7.65;5.90;;;;;;;;;;5076239;28;20102;-67
2024/03/21 00:53:20;;;;;;;8.63;5.25;;;;;;;;;;5077749;28;20028;-66
2024/03/21 00:55:46;;;;;;;7.93;5.13;;;;;;;;;;5072157;28;20034;-66
2024/03/21 00:58:12;;;;;;;8.43;5.38;;;;;;;;;;5073069;28;20024;-65
2024/03/21 01:00:39;;;;;;;10.52;5.88;;;;;;;;;;5081371;28;20055;-65
2024/03/21 01:03:08;;;;;;;8.70;6.50;;;;;;;;;;5072479;28;20512;-65
2024/03/21 01:08:39;;;;;;;8.20;5.97;;;;;;;;;;5071465;28;20035;-65
2024/03/21 01:11:06;;;;;;;10.05;6.10;;;;;;;;;;5077987;28;20503;-66
2024/03/21 01:13:32;;;;;;;11.60;6.78;;;;;;;;;;5073133;28;20059;-65
2024/03/21 01:15:58;;;;;;;9.50;5.85;;;;;;;;;;5080741;28;20072;-65
2024/03/21 01:18:34;;;;;;;8.63;6.10;;;;;;;;;;5071892;28;20381;-66
2024/03/21 01:21:01;;;;;;;8.15;5.13;;;;;;;;;;5086341;28;20103;-66
2024/03/21 01:23:28;;;;;;;8.15;6.05;;;;;;;;;;5067687;28;20028;-66
2024/03/21 01:25:57;;;;;;;7.70;5.65;;;;;;;;;;5068144;28;20406;-67
2024/03/21 01:28:23;;;;;;;9.85;6.20;;;;;;;;;;5082053;28;20115;-66
2024/03/21 01:30:49;;;;;;;11.10;5.63;;;;;;;;;;5076074;28;20568;-67
2024/03/21 01:33:16;;;;;;;15.98;6.07;;;;;;;;;;5077652;28;20480;-65
2024/03/21 01:35:42;;;;;;;14.18;7.10;;;;;;;;;;5072934;28;20061;-66
2024/03/21 01:38:08;;;;;;;10.35;5.07;;;;;;;;;;5067482;28;20044;-66
2024/03/21 01:40:38;;;;;;;10.40;6.88;;;;;;;;;;5086175;28;20069;-65
2024/03/21 01:43:18;;;;;;;7.82;5.60;;;;;;;;;;5083274;28;20036;-65
2024/03/21 01:45:53;;;;;;;13.52;5.70;;;;;;;;;;5079394;28;20021;-66
2024/03/21 01:48:19;;;;;;;8.82;5.40;;;;;;;;;;5077226;28;20062;-66
2024/03/21 01:50:46;;;;;;;8.68;6.00;;;;;;;;;;5079790;28;20061;-65
2024/03/21 01:53:12;;;;;;;9.63;5.78;;;;;;;;;;5080842;28;20025;-65
2024/03/21 01:55:39;;;;;;;10.80;6.78;;;;;;;;;;5088461;28;20020;-65
2024/03/21 01:58:05;;;;;;;6.60;4.82;;;;;;;;;;5078438;28;20115;-65
2024/03/21 02:00:35;;;;;;;9.52;5.57;;;;;;;;;;5087163;28;20533;-65
2024/03/21 02:03:01;;;;;;;8.57;5.85;;;;;;;;;;5083793;28;20032;-65
2024/03/21 02:05:27;;;;;;;10.05;6.05;;;;;;;;;;5078673;28;20148;-64
2024/03/21 02:07:54;;;;;;;10.85;5.68;;;;;;;;;;5082575;28;20053;-65
2024/03/21 02:10:21;;;;;;;10.05;6.78;;;;;;;;;;5068418;28;20927;-65
2024/03/21 02:12:47;;;;;;;6.78;5.47;;;;;;;;;;5078764;28;20412;-65
2024/03/21 02:15:14;;;;;;;8.60;6.40;;;;;;;;;;5067899;28;20020;-66
2024/03/21 02:17:40;;;;;;;10.05;6.28;;;;;;;;;;5078833;28;20375;-66
2024/03/21 02:20:07;;;;;;;8.00;5.28;;;;;;;;;;5069722;28;20028;-66
2024/03/21 02:22:36;;;;;;;8.40;6.47;;;;;;;;;;5075604;28;20435;-65
2024/03/21 02:25:06;;;;;;;6.90;5.43;;;;;;;;;;5074141;28;20024;-66
2024/03/21 02:27:34;;;;;;;11.23;5.70;;;;;;;;;;5070219;28;20025;-64
2024/03/21 02:30:00;;;;;;;10.57;6.18;;;;;;;;;;5070733;28;20545;-66
2024/03/21 02:32:29;;;;;;;8.73;6.47;;;;;;;;;;5073121;28;20280;-66
2024/03/21 02:34:55;;;;;;;10.80;5.85;;;;;;;;;;5079088;28;20500;-65
2024/03/21 02:37:22;;;;;;;9.57;5.85;;;;;;;;;;5082138;28;20062;-65
2024/03/21 02:39:52;;;;;;;16.15;6.75;;;;;;;;;;5085788;28;20031;-65
2024/03/21 02:42:24;;;;;;;6.03;5.30;;;;;;;;;;5101734;28;20035;-66
2024/03/21 02:44:51;;;;;;;9.60;6.72;;;;;;;;;;5077327;28;20024;-65
2024/03/21 02:47:19;;;;;;;12.05;6.60;;;;;;;;;;5093378;28;20051;-73
2024/03/21 02:49:45;;;;;;;7.82;5.25;;;;;;;;;;5065537;28;20077;-65
2024/03/21 02:52:12;;;;;;;9.20;6.35;;;;;;;;;;5095526;28;20072;-65
2024/03/21 02:54:38;;;;;;;7.90;5.95;;;;;;;;;;5080795;28;20032;-66
2024/03/21 02:57:04;;;;;;;8.88;5.72;;;;;;;;;;5095783;28;20032;-66
2024/03/21 02:59:34;;;;;;;6.93;4.93;;;;;;;;;;5100539;27;20016;-65
2024/03/21 03:02:00;;;;;;;7.78;5.70;;;;;;;;;;5090871;28;20516;-66
2024/03/21 03:04:26;;;;;;;6.70;5.97;;;;;;;;;;5096642;28;20468;-66
2024/03/21 03:06:53;;;;;;;8.77;5.05;;;;;;;;;;5102643;28;20051;-65
2024/03/21 03:09:19;;;;;;;7.07;5.45;;;;;;;;;;5103303;28;20027;-66
2024/03/21 03:11:45;;;;;;;14.93;7.00;;;;;;;;;;5079939;28;20063;-65
2024/03/21 03:14:11;;;;;;;7.45;5.18;;;;;;;;;;5096839;28;20034;-66
2024/03/21 03:16:39;;;;;;;8.35;5.80;;;;;;;;;;5087982;28;20027;-64
2024/03/21 03:19:06;;;;;;;12.52;6.35;;;;;;;;;;5089643;28;20074;-66
2024/03/21 03:21:32;;;;;;;10.00;5.70;;;;;;;;;;5081276;28;20031;-65
2024/03/21 03:23:59;;;;;;;8.07;6.43;;;;;;;;;;5096783;28;20023;-66
2024/03/21 03:26:25;;;;;;;16.90;6.35;;;;;;;;;;5090258;28;20028;-65
2024/03/21 03:28:51;;;;;;;10.02;6.13;;;;;;;;;;5087667;28;20031;-66
2024/03/21 03:31:17;;;;;;;12.10;6.38;;;;;;;;;;5092401;28;20102;-66
2024/03/21 03:36:32;;;;;;;13.13;6.63;;;;;;;;;;5102933;28;20031;-70
2024/03/21 03:38:58;;;;;;;9.23;5.85;;;;;;;;;;5087288;28;20434;-65
2024/03/21 03:41:25;;;;;;;8.23;5.90;;;;;;;;;;5088481;28;20036;-65
2024/03/21 03:43:51;;;;;;;9.25;5.78;;;;;;;;;;5076750;28;20077;-67
2024/03/21 03:46:18;;;;;;;7.53;5.72;;;;;;;;;;5078166;28;20059;-66
2024/03/21 03:48:44;;;;;;;10.30;5.68;;;;;;;;;;5084587;28;20538;-65
2024/03/21 03:51:10;;;;;;;11.85;5.82;;;;;;;;;;5080594;28;20036;-66
2024/03/21 03:53:36;;;;;;;9.45;5.88;;;;;;;;;;5084088;28;20029;-66
2024/03/21 03:56:03;;;;;;;9.00;5.75;;;;;;;;;;5083126;28;20032;-66
2024/03/21 03:58:29;;;;;;;10.05;5.90;;;;;;;;;;5072563;28;20020;-65
2024/03/21 04:00:56;;;;;;;7.72;5.38;;;;;;;;;;5081096;28;20622;-66
2024/03/21 04:03:22;;;;;;;6.50;5.53;;;;;;;;;;5079293;28;20237;-66
2024/03/21 04:05:55;;;;;;;9.23;6.28;;;;;;;;;;5072094;28;20501;-66
2024/03/21 04:08:22;;;;;;;9.32;6.80;;;;;;;;;;5069201;28;20038;-66
2024/03/21 04:10:48;;;;;;;7.43;5.82;;;;;;;;;;5081996;28;20110;-65
2024/03/21 04:13:14;;;;;;;8.35;6.32;;;;;;;;;;5075504;28;20112;-66
2024/03/21 04:15:40;;;;;;;10.68;6.22;;;;;;;;;;5076478;28;20024;-66
2024/03/21 04:18:07;;;;;;;10.13;6.40;;;;;;;;;;5073220;28;20032;-66
2024/03/21 04:20:33;;;;;;;7.90;5.60;;;;;;;;;;5095193;28;20042;-66
2024/03/21 04:22:59;;;;;;;13.48;5.45;;;;;;;;;;5080826;28;20489;-66
2024/03/21 04:25:26;;;;;;;12.65;5.80;;;;;;;;;;5082575;28;20544;-65
2024/03/21 04:27:52;;;;;;;11.13;7.75;;;;;;;;;;5075478;28;20028;-65
2024/03/21 04:30:18;;;;;;;10.40;5.82;;;;;;;;;;5072830;28;20033;-65
2024/03/21 04:32:44;;;;;;;7.15;5.72;;;;;;;;;;5069227;28;20105;-65
2024/03/21 04:35:10;;;;;;;7.82;6.03;;;;;;;;;;5082436;28;20030;-65
2024/03/21 04:37:36;;;;;;;9.35;5.72;;;;;;;;;;5076328;28;20039;-65
2024/03/21 04:40:03;;;;;;;9.43;5.47;;;;;;;;;;5070829;28;20031;-65
2024/03/21 04:42:29;;;;;;;9.88;6.13;;;;;;;;;;5073764;28;20540;-65
2024/03/21 04:44:55;;;;;;;8.73;6.03;;;;;;;;;;5078627;28;20485;-66
2024/03/21 04:47:22;;;;;;;11.18;6.50;;;;;;;;;;5081289;28;20036;-66
2024/03/21 04:49:54;;;;;;;11.20;5.57;;;;;;;;;;5080740;28;20447;-65
2024/03/21 04:52:20;;;;;;;7.78;4.93;;;;;;;;;;5076042;28;20052;-67
2024/03/21 04:54:50;;;;;;;8.98;5.63;;;;;;;;;;5080291;28;20105;-65
2024/03/21 04:57:17;;;;;;;7.13;4.82;;;;;;;;;;5077620;28;20413;-65
2024/03/21 04:59:43;;;;;;;13.27;6.43;;;;;;;;;;5085706;28;20032;-65
2024/03/21 05:02:09;;;;;;;10.07;6.07;;;;;;;;;;5082916;28;20153;-65
2024/03/21 05:04:35;;;;;;;13.13;6.45;;;;;;;;;;5085800;28;20036;-64
2024/03/21 05:07:02;;;;;;;7.63;6.25;;;;;;;;;;5092696;28;20028;-64
2024/03/21 05:09:29;;;;;;;8.27;5.53;;;;;;;;;;5086422;28;20393;-67
2024/03/21 05:11:55;;;;;;;15.20;5.82;;;;;;;;;;5076907;28;20482;-66
2024/03/21 05:14:23;;;;;;;10.27;5.22;;;;;;;;;;5074857;28;20470;-66
2024/03/21 05:16:50;;;;;;;7.85;5.50;;;;;;;;;;5080479;28;20801;-68
2024/03/21 05:19:16;;;;;;;6.63;4.38;;;;;;;;;;5085053;28;20051;-66
2024/03/21 05:21:43;;;;;;;7.30;4.38;;;;;;;;;;5085985;28;20024;-66
2024/03/21 05:24:09;;;;;;;7.28;5.65;;;;;;;;;;5078941;28;20024;-66
2024/03/21 05:26:35;;;;;;;8.40;5.28;;;;;;;;;;5086660;28;20081;-66
2024/03/21 05:29:01;;;;;;;7.28;5.15;;;;;;;;;;5076718;28;20456;-65
2024/03/21 05:31:27;;;;;;;7.93;5.72;;;;;;;;;;5087981;28;20031;-66
2024/03/21 05:33:54;;;;;;;11.27;5.25;;;;;;;;;;5075274;28;20021;-65
2024/03/21 05:36:21;;;;;;;10.18;5.05;;;;;;;;;;5076512;28;20036;-65
2024/03/21 05:38:47;;;;;;;7.75;5.55;;;;;;;;;;5101644;27;20119;-65
2024/03/21 05:41:13;;;;;;;8.73;5.75;;;;;;;;;;5100049;28;20173;-65
2024/03/21 05:43:39;;;;;;;7.95;5.10;;;;;;;;;;5080970;28;20020;-65
2024/03/21 05:46:06;;;;;;;10.60;5.38;;;;;;;;;;5098781;28;20219;-65
2024/03/21 05:48:32;;;;;;;11.18;5.88;;;;;;;;;;5085450;28;20028;-65
2024/03/21 05:50:59;;;;;;;10.35;4.75;;;;;;;;;;5097316;28;20066;-65
2024/03/21 05:53:25;;;;;;;5.57;4.65;;;;;;;;;;5095355;27;20024;-65
2024/03/21 05:55:56;;;;;;;8.57;5.25;;;;;;;;;;5098949;28;20028;-65
2024/03/21 05:58:23;;;;;;;12.43;5.32;;;;;;;;;;5088724;28;20026;-67
2024/03/21 06:00:55;;;;;;;6.13;4.60;;;;;;;;;;5098872;27;20548;-64
2024/03/21 06:03:21;;;;;;;6.10;4.53;;;;;;;;;;5097026;28;20046;-66
2024/03/21 06:05:49;;;;;;;7.28;4.72;;;;;;;;;;5101613;28;20042;-68
2024/03/21 06:08:15;;;;;;;11.32;5.68;;;;;;;;;;5089638;28;20070;-66
2024/03/21 06:10:41;;;;;;;6.75;4.85;;;;;;;;;;5078391;28;20028;-66
2024/03/21 06:13:07;;;;;;;9.88;5.82;;;;;;;;;;5082262;28;20035;-66
2024/03/21 06:15:34;;;;;;;7.20;4.88;;;;;;;;;;5089358;28;20466;-66
2024/03/21 06:18:00;;;;;;;7.57;6.03;;;;;;;;;;5104985;28;20015;-65
2024/03/21 06:20:29;;;;;;;9.65;5.90;;;;;;;;;;5101130;28;20077;-65
2024/03/21 06:22:57;;;;;;;8.60;5.15;;;;;;;;;;5099611;28;20012;-66
2024/03/21 06:25:23;;;;;;;10.23;4.72;;;;;;;;;;5098028;28;20024;-66
2024/03/21 06:27:49;;;;;;;7.80;5.50;;;;;;;;;;5073808;28;20476;-66
2024/03/21 06:30:16;;;;;;;8.02;5.10;;;;;;;;;;5098462;28;20080;-66
2024/03/21 06:32:43;;;;;;;8.55;5.05;;;;;;;;;;5089821;28;20024;-66
2024/03/21 06:35:13;;;;;;;7.55;4.68;;;;;;;;;;5070325;28;20020;-65
2024/03/21 06:37:39;;;;;;;7.15;4.47;;;;;;;;;;5091385;28;20032;-65
2024/03/21 06:40:06;;;;;;;7.65;5.18;;;;;;;;;;5103246;27;20031;-65
2024/03/21 06:42:33;;;;;;;13.07;4.60;;;;;;;;;;5095949;28;20091;-68
2024/03/21 06:45:00;;;;;;;12.52;4.13;;;;;;;;;;5095468;28;20026;-65
2024/03/21 06:47:26;;;;;;;10.00;4.60;;;;;;;;;;5078711;28;20031;-65
2024/03/21 06:50:01;;;;;;;8.20;5.63;;;;;;;;;;5101762;28;20050;-66
2024/03/21 06:52:27;;;;;;;;;;;;;;;;;;5074894;28;20027;-65
2024/03/21 06:54:53;;;;;;;;;;;;;;;;;;5089288;28;20307;-65
2024/03/21 06:57:21;;;;;;;11.85;4.70;;;;;;;;;;5098555;28;19913;-65
2024/03/21 06:59:47;;;;;;;5.82;3.55;;;;;;;;;;5099645;28;20037;-66
2024/03/21 07:02:15;;;;;;;7.47;4.65;;;;;;;;;;5098068;28;20020;-66
2024/03/21 07:04:41;;;;;;;9.27;4.75;;;;;;;;;;5094598;28;20075;-65
2024/03/21 07:07:08;;;;;;;8.65;4.38;;;;;;;;;;5093638;27;20028;-66
2024/03/21 07:09:34;;;;;;;5.40;4.22;;;;;;;;;;5089842;28;20028;-65
2024/03/21 07:12:00;;;;;;;6.78;3.70;;;;;;;;;;5099428;28;20274;-65
2024/03/21 07:14:32;;;;;;;5.57;3.65;;;;;;;;;;5092454;28;20198;-66
2024/03/21 07:16:59;;;;;;;8.07;3.80;;;;;;;;;;5092220;28;20393;-66
2024/03/21 07:19:35;;;;;;;7.03;3.85;;;;;;;;;;5086420;28;20541;-67
2024/03/21 07:22:04;;;;;;;7.95;3.25;;;;;;;;;;5099596;28;20038;-66
2024/03/21 07:24:31;;;;;;;6.25;4.72;;;;;;;;;;5097392;28;20028;-65
2024/03/21 07:26:58;;;;;;;4.28;3.08;;;;;;;;;;5088629;28;20053;-65
2024/03/21 07:29:24;;;;;;;13.43;4.93;;;;;;;;;;5092490;28;20028;-65
2024/03/21 07:31:50;;;;;;;8.82;4.38;;;;;;;;;;5092195;28;20042;-66
2024/03/21 07:34:16;;;;;;;6.35;4.30;;;;;;;;;;5078635;28;20421;-66
2024/03/21 07:36:42;;;;;;;5.03;3.60;;;;;;;;;;5096213;28;20034;-64
2024/03/21 07:39:08;;;;;;;7.75;3.60;;;;;;;;;;5102448;27;20048;-66
2024/03/21 07:41:34;;;;;;;6.10;3.47;;;;;;;;;;5108590;27;20027;-66
2024/03/21 07:44:02;;;;;;;4.22;3.25;;;;;;;;;;5096188;27;20035;-66
2024/03/21 07:46:31;;;;;;;7.70;3.50;;;;;;;;;;5099060;28;20028;-67
2024/03/21 07:48:58;;;;;;;6.30;3.80;;;;;;;;;;5098547;28;20039;-66
2024/03/21 07:51:24;;;;;;;6.07;3.22;;;;;;;;;;5084573;28;20040;-66
2024/03/21 07:53:51;;;;;;;7.93;3.75;;;;;;;;;;5098493;27;20099;-65
2024/03/21 07:56:17;;;;;;;9.70;3.47;;;;;;;;;;5096917;28;20250;-66
2024/03/21 07:58:43;;;;;;;5.38;3.03;;;;;;;;;;5085035;28;20032;-67
2024/03/21 08:01:13;;;;;;;5.72;3.15;;;;;;;;;;5075869;28;20036;-66
2024/03/21 08:03:39;;;;;;;5.65;3.17;;;;;;;;;;5094059;27;20481;-65
2024/03/21 08:06:05;;;;;;;4.05;3.45;;;;;;;;;;5095352;28;20058;-66
2024/03/21 08:08:31;;;;;;;4.32;2.70;;;;;;;;;;5105071;28;20240;-65
2024/03/21 08:10:59;;;;;;;5.45;2.97;;;;;;;;;;5099570;28;20031;-66
2024/03/21 08:13:25;;;;;;;7.07;3.22;;;;;;;;;;5096694;27;20527;-66
2024/03/21 08:15:54;;;;;;;4.25;2.97;;;;;;;;;;5108314;28;20028;-66
2024/03/21 08:18:20;;;;;;;3.50;2.22;;;;;;;;;;5098784;28;20087;-66
2024/03/21 08:20:47;;;;;;;2.72;2.35;;;;;;;;;;5105147;28;20393;-67
2024/03/21 08:23:13;;;;;;;4.70;2.22;;;;;;;;;;5094013;27;20032;-65
2024/03/21 08:25:39;;;;;;;5.57;2.78;;;;;;;;;;5075782;28;20032;-65
2024/03/21 08:28:06;;;;;;;3.38;2.35;;;;;;;;;;5092620;27;20032;-65
2024/03/21 08:30:32;;;;;;;3.67;2.70;;;;;;;;;;5092936;27;20083;-65
2024/03/21 08:32:58;;;;;;;4.13;2.53;;;;;;;;;;5103576;28;20028;-66
2024/03/21 08:35:24;;;;;;;3.42;2.65;;;;;;;;;;5105456;28;20420;-65
2024/03/21 08:37:51;;;;;;;3.20;2.75;;;;;;;;;;5088980;28;20035;-66
2024/03/21 08:40:17;;;;;;;3.00;2.60;;;;;;;;;;5085727;28;20027;-65
2024/03/21 08:42:43;;;;;;;2.60;2.10;;;;;;;;;;5082422;28;20024;-67
2024/03/21 08:45:10;;;;;;;3.58;3.10;;;;;;;;;;5073785;28;20886;-65
2024/03/21 08:47:36;;;;;;;3.97;2.63;;;;;;;;;;5086391;28;20031;-65
2024/03/21 08:50:03;;;;;;;4.28;2.75;;;;;;;;;;5098031;27;20081;-66
2024/03/21 08:52:29;;;;;;;7.18;2.70;;;;;;;;;;5095120;28;20089;-65
2024/03/21 08:54:55;;;;;;;3.10;2.30;;;;;;;;;;5094344;28;20250;-65
2024/03/21 08:57:21;;;;;;;5.00;2.40;;;;;;;;;;5093995;28;20020;-66
2024/03/21 08:59:48;;;;;;;3.03;2.25;;;;;;;;;;5101526;28;20024;-65
2024/03/21 09:02:15;;;;;;;2.35;2.00;;;;;;;;;;5092060;28;20028;-68
2024/03/21 09:04:41;;;;;;;2.10;1.90;;;;;;;;;;5102120;28;20031;-66
2024/03/21 09:07:09;;;;;;;2.20;1.90;;;;;;;;;;5098867;27;20038;-67
2024/03/21 09:09:35;;;;;;;2.95;2.28;;;;;;;;;;5101634;27;20065;-68
2024/03/21 09:12:02;;;;;;;5.32;2.45;;;;;;;;;;5104985;28;20028;-65
2024/03/21 09:14:28;;;;;;;5.20;2.20;;;;;;;;;;5101383;28;20019;-65
2024/03/21 09:16:54;;;;;;;2.70;1.85;;;;;;;;;;5098144;28;20062;-65
2024/03/21 09:19:20;;;;;;;2.88;1.83;;;;;;;;;;5092173;27;20500;-66
2024/03/21 09:21:47;;;;;;;2.70;2.42;;;;;;;;;;5081463;28;20027;-66
2024/03/21 09:24:13;;;;;;;5.15;2.25;;;;;;;;;;5099181;28;20056;-65
2024/03/21 09:26:41;;;;;;;4.75;2.00;;;;;;;;;;5095043;28;20405;-65
2024/03/21 09:29:08;;;;;;;4.03;2.10;;;;;;;;;;5079848;28;20150;-66
2024/03/21 09:31:34;;;;;;;2.97;2.20;;;;;;;;;;5095016;28;20023;-66
2024/03/21 09:34:00;;;;;;;3.33;2.22;;;;;;;;;;5090751;28;20031;-66
2024/03/21 09:36:27;;;;;;;5.95;2.05;;;;;;;;;;5102049;28;20142;-66
2024/03/21 09:38:53;;;;;;;4.68;2.35;;;;;;;;;;5098500;28;20044;-65
2024/03/21 09:41:20;;;;;;;4.63;1.95;;;;;;;;;;5100495;28;20111;-66
2024/03/21 09:43:46;;;;;;;6.22;2.10;;;;;;;;;;5091985;28;20035;-65
2024/03/21 09:46:18;;;;;;;1.70;1.60;;;;;;;;;;5096811;28;20456;-65
2024/03/21 09:48:45;;;;;;;2.03;1.92;;;;;;;;;;5097449;28;20083;-66
2024/03/21 09:51:21;;;;;;;1.65;1.55;;;;;;;;;;5085683;28;20118;-66
2024/03/21 09:53:48;;;;;;;3.63;2.25;;;;;;;;;;5101887;27;20158;-66
2024/03/21 09:56:18;;;;;;;4.47;1.85;;;;;;;;;;5093975;28;20020;-66
2024/03/21 09:58:46;;;;;;;2.90;2.28;;;;;;;;;;5102781;28;20019;-74
2024/03/21 10:01:20;;;;;;;2.28;1.42;;;;;;;;;;5089006;28;20031;-73
2024/03/21 10:03:48;;;;;;;1.42;1.33;;;;;;;;;;5105454;28;20035;-74
2024/03/21 10:06:14;;;;;;;2.40;1.73;;;;;;;;;;5074984;28;20597;-73
2024/03/21 10:08:41;;;;;;;2.60;1.75;;;;;;;;;;5094844;28;20049;-74
2024/03/21 10:11:07;;;;;;;3.20;1.95;;;;;;;;;;5085857;28;20050;-73
2024/03/21 10:13:34;;;;;;;1.80;1.65;;;;;;;;;;5094258;28;20031;-73
2024/03/21 10:16:00;;;;;;;5.43;1.98;;;;;;;;;;5092297;28;20454;-74
2024/03/21 10:18:26;;;;;;;3.00;1.40;;;;;;;;;;5103698;28;20047;-73
2024/03/21 10:20:53;;;;;;;2.50;1.83;;;;;;;;;;5099605;28;20031;-73
2024/03/21 10:23:20;;;;;;;2.05;1.83;;;;;;;;;;5098797;28;20028;-73
2024/03/21 10:25:48;;;;;;;1.85;1.75;;;;;;;;;;5099148;27;20102;-74
2024/03/21 10:28:18;;;;;;;1.90;1.35;;;;;;;;;;5083912;28;20042;-74
2024/03/21 10:30:44;;;;;;;1.33;1.27;;;;;;;;;;5096012;28;20019;-73
2024/03/21 10:33:16;;;;;;;1.90;1.75;;;;;;;;;;5102166;28;20045;-73
2024/03/21 10:35:43;;;;;;;1.70;1.60;;;;;;;;;;5090616;28;20032;-73
2024/03/21 10:38:14;;;;;;;1.30;1.30;;;;;;;;;;5095579;28;20060;-72
2024/03/21 10:40:50;;;;;;;1.70;1.60;;;;;;;;;;5101771;28;20461;-74
2024/03/21 10:43:17;;;;;;;2.63;1.63;;;;;;;;;;5096596;28;20113;-73
2024/03/21 10:45:45;;;;;;;2.75;1.60;;;;;;;;;;5096907;28;20034;-72
2024/03/21 10:48:28;;;;;;;1.63;1.40;;;;;;;;;;5104198;28;20047;-72
2024/03/21 10:50:54;;;;;;;1.50;1.40;;;;;;;;;;5080295;28;20024;-73
2024/03/21 10:53:21;;;;;;;7.07;2.10;;;;;;;;;;5106745;28;20404;-73
2024/03/21 10:55:51;;;;;;;2.25;1.55;;;;;;;;;;5090276;28;20051;-76
2024/03/21 10:58:20;;;;;;;1.58;1.33;;;;;;;;;;5098489;28;20028;-73
2024/03/21 11:00:53;;;;;;;1.58;1.48;;;;;;;;;;5086962;28;20020;-73
2024/03/21 11:03:19;;;;;;;1.77;1.63;;;;;;;;;;5080684;28;20047;-73
2024/03/21 11:05:55;;;;;;;3.55;1.73;;;;;;;;;;5104821;28;20016;-71
2024/03/21 11:08:25;;;;;;;3.05;1.60;;;;;;;;;;5087142;28;20015;-72
2024/03/21 11:10:52;;;;;;;3.08;1.80;;;;;;;;;;5103066;28;20621;-72
2024/03/21 11:13:18;;;;;;;2.08;1.88;;;;;;;;;;5103351;28;20028;-71
2024/03/21 11:15:44;;;;;;;4.63;2.63;;;;;;;;;;5108556;28;20026;-71
2024/03/21 11:18:11;;;;;;;2.67;1.48;;;;;;;;;;5090166;28;20107;-71
2024/03/21 11:20:39;;;;;;;3.25;1.73;;;;;;;;;;5110719;28;20095;-71
2024/03/21 11:23:05;;;;;;;1.85;1.65;;;;;;;;;;5106618;28;20040;-71
2024/03/21 11:25:32;;;;;;;4.65;2.03;;;;;;;;;;5103132;28;20886;-71
2024/03/21 11:27:58;;;;;;;1.60;1.50;;;;;;;;;;5094611;28;20032;-71
2024/03/21 11:30:25;;;;;;;1.77;1.40;;;;;;;;;;5105795;28;20065;-73
2024/03/21 11:32:51;;;;;;;1.38;1.30;;;;;;;;;;5104160;28;20592;-71
2024/03/21 11:35:19;;;;;;;2.47;1.95;;;;;;;;;;5097690;28;20473;-70
2024/03/21 11:37:46;;;;;;;3.63;1.73;;;;;;;;;;5097807;28;20521;-70
2024/03/21 11:40:15;;;;;;;2.20;2.00;;;;;;;;;;5106926;28;20027;-71
2024/03/21 11:42:42;;;;;;;5.90;1.77;;;;;;;;;;5100576;28;20101;-71
2024/03/21 11:45:12;;;;;;;2.85;1.80;;;;;;;;;;5098476;28;20492;-70
2024/03/21 11:47:39;;;;;;;1.50;1.40;;;;;;;;;;5094632;28;20121;-70
2024/03/21 11:50:05;;;;;;;4.88;1.75;;;;;;;;;;5097597;28;20024;-71
2024/03/21 11:52:31;;;;;;;1.55;1.45;;;;;;;;;;5105011;28;20042;-71
2024/03/21 11:54:57;;;;;;;3.45;1.80;;;;;;;;;;5092957;28;20020;-71
2024/03/21 11:57:24;;;;;;;5.30;1.95;;;;;;;;;;5095584;28;20134;-72
2024/03/21 11:59:51;;;;;;;2.03;1.70;;;;;;;;;;5079038;28;20051;-71
2024/03/21 12:02:18;;;;;;;1.65;1.45;;;;;;;;;;5083369;28;20043;-70
2024/03/21 12:04:45;;;;;;;2.58;1.90;;;;;;;;;;5090759;28;20146;-70
2024/03/21 12:07:12;;;;;;;3.95;1.70;;;;;;;;;;5098001;28;20031;-72
2024/03/21 12:09:38;;;;;;;3.05;1.90;;;;;;;;;;5089653;28;20113;-70
2024/03/21 12:12:04;;;;;;;13.05;2.10;;;;;;;;;;5095407;28;20091;-70
2024/03/21 12:14:31;;;;;;;2.25;2.00;;;;;;;;;;5095082;28;20015;-70
2024/03/21 12:16:57;;;;;;;2.22;1.73;;;;;;;;;;5098209;28;20031;-71
2024/03/21 12:19:24;;;;;;;6.47;1.90;;;;;;;;;;5097536;28;20123;-71
2024/03/21 12:21:50;;;;;;;5.30;2.25;;;;;;;;;;5097095;28;20042;-71
2024/03/21 12:24:17;;;;;;;5.93;1.80;;;;;;;;;;5101756;27;21153;-70
2024/03/21 12:26:44;;;;;;;5.85;2.13;;;;;;;;;;5087513;28;20028;-70
2024/03/21 12:29:10;;;;;;;1.92;1.58;;;;;;;;;;5104146;28;20031;-71
2024/03/21 12:31:37;;;;;;;2.55;1.80;;;;;;;;;;5108638;28;20435;-70
2024/03/21 12:34:03;;;;;;;2.35;1.35;;;;;;;;;;5079458;28;20028;-71
2024/03/21 12:36:30;;;;;;;5.20;1.88;;;;;;;;;;5091797;28;20020;-72
2024/03/21 12:38:56;;;;;;;2.85;1.85;;;;;;;;;;5102795;28;20058;-71
2024/03/21 12:41:23;;;;;;;2.63;2.35;;;;;;;;;;5095482;28;20046;-71
2024/03/21 12:43:49;;;;;;;1.38;1.27;;;;;;;;;;5078343;28;20078;-70
2024/03/21 12:46:15;;;;;;;3.47;2.00;;;;;;;;;;5086374;27;20035;-71
2024/03/21 12:48:42;;;;;;;5.18;1.90;;;;;;;;;;5100804;28;20027;-72
2024/03/21 12:51:12;;;;;;;1.85;1.75;;;;;;;;;;5096806;28;20558;-70
2024/03/21 12:53:38;;;;;;;2.88;2.15;;;;;;;;;;5102539;28;20631;-71
2024/03/21 12:56:05;;;;;;;4.18;1.73;;;;;;;;;;5092682;28;20401;-71
2024/03/21 12:58:31;;;;;;;10.63;2.17;;;;;;;;;;5102427;27;20016;-70
2024/03/21 13:00:57;;;;;;;2.28;2.00;;;;;;;;;;5097632;28;20389;-71
2024/03/21 13:03:24;;;;;;;2.70;1.77;;;;;;;;;;5103223;28;20028;-72
2024/03/21 13:05:50;;;;;;;1.92;1.77;;;;;;;;;;5101848;28;20062;-71
2024/03/21 13:08:17;;;;;;;6.95;2.72;;;;;;;;;;5093915;28;20433;-71
2024/03/21 13:10:49;;;;;;;2.22;1.80;;;;;;;;;;5084910;28;20480;-71
2024/03/21 13:13:15;;;;;;;3.53;2.17;;;;;;;;;;5106111;28;20027;-71
2024/03/21 13:15:42;;;;;;;3.50;2.13;;;;;;;;;;5099557;28;20353;-70
2024/03/21 13:18:08;;;;;;;5.18;2.25;;;;;;;;;;5093885;28;20024;-71
2024/03/21 13:20:34;;;;;;;3.15;2.35;;;;;;;;;;5089271;28;20477;-71
2024/03/21 13:23:00;;;;;;;3.03;1.90;;;;;;;;;;5082833;28;20056;-72
2024/03/21 13:25:30;;;;;;;3.80;2.17;;;;;;;;;;5085207;27;20067;-70
2024/03/21 13:27:56;;;;;;;1.92;1.75;;;;;;;;;;5082396;28;20028;-70
2024/03/21 13:30:26;;;;;;;2.92;2.10;;;;;;;;;;5095022;28;20048;-70
2024/03/21 13:32:53;;;;;;;6.65;3.03;;;;;;;;;;5092851;28;20041;-70
2024/03/21 13:35:19;;;;;;;5.10;2.60;;;;;;;;;;5100786;28;20093;-71
2024/03/21 13:37:49;;;;;;;5.35;2.65;;;;;;;;;;5080600;28;20505;-70
2024/03/21 13:40:16;;;;;;;5.65;2.35;;;;;;;;;;5107104;28;20024;-71
2024/03/21 13:42:42;;;;;;;4.35;2.22;;;;;;;;;;5099544;28;20065;-70
2024/03/21 13:45:09;;;;;;;5.80;2.95;;;;;;;;;;5076117;28;20028;-69
2024/03/21 13:47:39;;;;;;;7.07;2.78;;;;;;;;;;5078804;28;20031;-72
2024/03/21 13:50:11;;;;;;;8.60;2.70;;;;;;;;;;5101913;28;20039;-71
2024/03/21 13:52:38;;;;;;;12.05;3.05;;;;;;;;;;5102830;28;20031;-70
2024/03/21 13:55:06;;;;;;;5.43;2.33;;;;;;;;;;5096024;28;20028;-70
2024/03/21 13:57:34;;;;;;;2.58;2.10;;;;;;;;;;5093698;28;20479;-70
2024/03/21 14:00:09;;;;;;;4.55;2.70;;;;;;;;;;5094236;28;20028;-70
2024/03/21 14:02:36;;;;;;;3.28;1.95;;;;;;;;;;5099417;27;20036;-70
2024/03/21 14:05:03;;;;;;;4.13;3.13;;;;;;;;;;5078490;28;20039;-72
2024/03/21 14:07:30;;;;;;;2.90;2.53;;;;;;;;;;5096375;28;20116;-71
2024/03/21 14:09:57;;;;;;;2.97;2.42;;;;;;;;;;5072626;28;20489;-71
2024/03/21 14:12:24;;;;;;;4.45;2.28;;;;;;;;;;5087147;28;20043;-73
2024/03/21 14:14:50;;;;;;;7.35;2.78;;;;;;;;;;5106243;28;20024;-72
2024/03/21 14:17:16;;;;;;;5.88;2.85;;;;;;;;;;5087031;28;20434;-78
2024/03/21 14:19:43;;;;;;;5.13;2.53;;;;;;;;;;5094339;28;20095;-77
2024/03/21 14:22:09;;;;;;;4.97;3.63;;;;;;;;;;5102343;28;20398;-76
2024/03/21 14:24:36;;;;;;;4.88;2.72;;;;;;;;;;5087150;28;20035;-75
2024/03/21 14:27:03;;;;;;;12.43;2.75;;;;;;;;;;5102850;28;20030;-74
2024/03/21 14:29:29;;;;;;;2.55;1.85;;;;;;;;;;5104236;27;20076;-68
2024/03/21 14:31:58;;;;;;;2.63;2.17;;;;;;;;;;5103579;28;20108;-73
2024/03/21 14:34:24;;;;;;;5.00;2.55;;;;;;;;;;5103365;27;20041;-74
2024/03/21 14:36:50;;;;;;;5.72;2.47;;;;;;;;;;5098320;28;20314;-76
2024/03/21 14:39:18;;;;;;;6.35;3.03;;;;;;;;;;5076284;28;20435;-73
2024/03/21 14:41:44;;;;;;;3.42;2.72;;;;;;;;;;5081509;28;20047;-72
2024/03/21 14:44:10;;;;;;;4.20;2.92;;;;;;;;;;5081942;28;20169;-71
2024/03/21 14:46:42;;;;;;;8.63;2.67;;;;;;;;;;5076222;28;20024;-74